Time;durP1;ratioP1;P1;durP2;ratioP2;P2;SDS_P1;SDS_P2;PMS_P1;PMS_P2;Temp;Humidity;BMP_temperature;BMP_pressure;BME280_temperature;BME280_humidity;BME280_pressure;Samples;Min_cycle;Max_cycle;Signal;HPM_P1;HPM_P2
2023/09/08 00:01:24;;;;;;;8.65;7.47;;;21.50;99.90;;;;;;4980614;28;20045;-76
2023/09/08 00:03:50;;;;;;;8.35;6.88;;;21.60;99.90;;;;;;4996794;28;20425;-76
2023/09/08 00:06:16;;;;;;;7.78;6.90;;;21.60;99.90;;;;;;4980242;28;20124;-76
2023/09/08 00:08:43;;;;;;;9.32;7.22;;;21.70;99.90;;;;;;4980645;28;20051;-76
2023/09/08 00:11:08;;;;;;;9.18;6.90;;;21.40;99.90;;;;;;4980479;28;20038;-76
2023/09/08 00:13:34;;;;;;;12.27;7.78;;;22.00;99.90;;;;;;4996922;28;20410;-76
2023/09/08 00:16:00;;;;;;;9.82;6.82;;;21.40;99.90;;;;;;4980500;28;20093;-76
2023/09/08 00:18:25;;;;;;;7.50;6.30;;;21.40;99.90;;;;;;5014139;28;20501;-76
2023/09/08 00:20:51;;;;;;;8.27;7.07;;;22.20;99.90;;;;;;4980413;28;20037;-77
2023/09/08 00:23:16;;;;;;;12.05;6.03;;;21.30;99.90;;;;;;4996665;28;20048;-76
2023/09/08 00:25:42;;;;;;;8.13;6.70;;;21.40;99.90;;;;;;4980745;28;20125;-76
2023/09/08 00:28:07;;;;;;;7.75;6.95;;;21.40;99.90;;;;;;4980435;28;20080;-76
2023/09/08 00:30:33;;;;;;;21.45;7.68;;;21.30;99.90;;;;;;4996406;28;20196;-76
2023/09/08 00:32:59;;;;;;;7.68;6.75;;;21.30;99.90;;;;;;4996386;28;20068;-76
2023/09/08 00:35:24;;;;;;;12.52;7.28;;;21.20;99.90;;;;;;4996271;28;20038;-76
2023/09/08 00:37:50;;;;;;;9.43;7.97;;;21.40;99.90;;;;;;5013659;28;20045;-76
2023/09/08 00:40:15;;;;;;;13.68;7.35;;;21.20;99.90;;;;;;4996519;28;20642;-76
2023/09/08 00:42:41;;;;;;;7.82;7.03;;;21.20;99.90;;;;;;4996208;28;20125;-76
2023/09/08 00:45:07;;;;;;;9.57;6.32;;;21.50;99.90;;;;;;4996149;28;20501;-76
2023/09/08 00:47:34;;;;;;;7.80;6.55;;;21.10;99.90;;;;;;4979720;28;20060;-76
2023/09/08 00:50:00;;;;;;;9.57;6.80;;;21.30;99.90;;;;;;4995875;28;20046;-76
2023/09/08 00:52:31;;;;;;;9.18;7.20;;;21.10;99.90;;;;;;4995946;28;20497;-76
2023/09/08 00:54:56;;;;;;;9.57;7.78;;;21.10;99.90;;;;;;4996003;28;20084;-76
2023/09/08 00:57:22;;;;;;;10.30;7.10;;;21.10;99.90;;;;;;4995694;28;20065;-77
2023/09/08 00:59:48;;;;;;;13.40;7.95;;;20.90;99.90;;;;;;4995854;28;20041;-76
2023/09/08 01:02:14;;;;;;;9.05;7.55;;;21.30;99.90;;;;;;4996421;28;20092;-76
2023/09/08 01:04:41;;;;;;;9.55;6.97;;;20.80;99.90;;;;;;4995893;28;20038;-76
2023/09/08 01:07:07;;;;;;;8.32;7.13;;;21.00;99.90;;;;;;4995356;28;20505;-76
2023/09/08 01:09:34;;;;;;;13.02;7.90;;;20.80;99.90;;;;;;4979442;28;20489;-76
2023/09/08 01:12:03;;;;;;;9.98;7.35;;;21.00;99.90;;;;;;4995568;28;20057;-76
2023/09/08 01:14:30;;;;;;;8.25;7.22;;;20.70;99.90;;;;;;4994984;28;20038;-76
2023/09/08 01:16:55;;;;;;;14.27;8.20;;;20.80;99.90;;;;;;4995322;28;20045;-76
2023/09/08 01:19:22;;;;;;;8.35;7.20;;;20.80;99.90;;;;;;4995353;28;20157;-76
2023/09/08 01:22:19;;;;;;;9.05;7.13;;;20.70;99.90;;;;;;4995709;28;20092;-76
2023/09/08 01:25:06;;;;;;;10.90;7.57;;;20.80;99.90;;;;;;4979396;28;20033;-76
2023/09/08 01:27:35;;;;;;;8.20;7.15;;;20.70;99.90;;;;;;4978715;28;20046;-76
2023/09/08 01:30:02;;;;;;;8.23;7.43;;;20.80;99.90;;;;;;4995211;28;20131;-76
2023/09/08 01:32:29;;;;;;;9.10;6.75;;;20.40;99.90;;;;;;4995466;28;20045;-76
2023/09/08 01:34:57;;;;;;;8.07;7.32;;;21.20;99.90;;;;;;4995182;28;20049;-76
2023/09/08 01:37:23;;;;;;;9.73;8.27;;;20.30;99.90;;;;;;4994742;28;20524;-76
2023/09/08 01:39:49;;;;;;;9.73;8.00;;;20.60;99.90;;;;;;4978797;28;20125;-76
2023/09/08 01:42:15;;;;;;;12.57;8.23;;;20.50;99.90;;;;;;4995154;28;20073;-76
2023/09/08 01:44:40;;;;;;;9.55;7.53;;;20.20;99.90;;;;;;4995332;28;20496;-76
2023/09/08 01:47:06;;;;;;;8.88;7.88;;;20.40;99.90;;;;;;4995051;28;20038;-76
2023/09/08 01:49:31;;;;;;;9.27;7.93;;;20.40;99.90;;;;;;4994936;28;20045;-76
2023/09/08 01:51:57;;;;;;;15.85;8.30;;;20.40;99.90;;;;;;4994814;28;20050;-76
2023/09/08 01:54:22;;;;;;;9.15;8.25;;;20.50;99.90;;;;;;4994868;28;20165;-76
2023/09/08 01:56:48;;;;;;;10.02;7.35;;;20.30;99.90;;;;;;4978322;28;20404;-76
2023/09/08 01:59:14;;;;;;;10.02;7.80;;;20.20;99.90;;;;;;4994783;28;20386;-76
2023/09/08 02:01:40;;;;;;;10.07;8.13;;;20.30;99.90;;;;;;4994589;28;20444;-76
2023/09/08 02:04:05;;;;;;;9.27;8.23;;;20.00;99.90;;;;;;4994748;28;20042;-76
2023/09/08 02:06:31;;;;;;;9.25;8.35;;;20.20;99.90;;;;;;4978148;28;20065;-76
2023/09/08 02:08:57;;;;;;;11.38;9.60;;;20.30;99.90;;;;;;4994657;28;20096;-76
2023/09/08 02:11:22;;;;;;;10.55;8.50;;;20.10;99.90;;;;;;4994698;28;20464;-76
2023/09/08 02:13:48;;;;;;;10.07;8.50;;;20.50;99.90;;;;;;4994535;28;20061;-76
2023/09/08 02:16:14;;;;;;;10.77;8.52;;;19.90;99.90;;;;;;4994503;28;20077;-76
2023/09/08 02:18:42;;;;;;;11.10;8.43;;;20.10;99.90;;;;;;4994474;28;20045;-76
2023/09/08 02:21:07;;;;;;;9.30;7.78;;;19.90;99.90;;;;;;4978068;28;20125;-76
2023/09/08 02:23:33;;;;;;;10.23;8.70;;;20.00;99.90;;;;;;4994643;28;20125;-76
2023/09/08 02:25:58;;;;;;;12.02;8.82;;;19.90;99.90;;;;;;4993184;28;20033;-76
2023/09/08 02:28:24;;;;;;;12.07;8.45;;;20.00;99.90;;;;;;4994650;28;20057;-76
2023/09/08 02:30:50;;;;;;;11.30;8.75;;;20.10;99.90;;;;;;4978086;28;20038;-76
2023/09/08 02:33:15;;;;;;;10.02;8.23;;;20.00;99.90;;;;;;4994455;28;20107;-76
2023/09/08 02:35:41;;;;;;;10.05;8.60;;;20.50;99.90;;;;;;4994297;28;20046;-76
2023/09/08 02:38:07;;;;;;;9.48;8.45;;;19.70;99.90;;;;;;4977640;28;20049;-76
2023/09/08 02:40:34;;;;;;;8.55;7.65;;;20.00;99.90;;;;;;4994382;28;20401;-76
2023/09/08 02:43:01;;;;;;;12.23;8.05;;;19.90;99.90;;;;;;4994278;28;20042;-76
2023/09/08 02:45:26;;;;;;;10.05;9.15;;;19.80;99.90;;;;;;4994123;28;20054;-76
2023/09/08 02:47:52;;;;;;;12.93;8.63;;;20.00;99.90;;;;;;4994216;28;20046;-76
2023/09/08 02:50:17;;;;;;;10.60;9.18;;;20.60;99.90;;;;;;4994095;28;20045;-76
2023/09/08 02:52:44;;;;;;;11.55;8.80;;;19.70;99.90;;;;;;4994110;28;20132;-76
2023/09/08 02:55:10;;;;;;;11.95;9.40;;;19.70;99.90;;;;;;4993992;28;20045;-76
2023/09/08 02:57:35;;;;;;;11.38;8.65;;;19.90;99.90;;;;;;4977492;28;20052;-76
2023/09/08 03:00:01;;;;;;;11.27;9.88;;;19.80;99.90;;;;;;4994128;28;20037;-77
2023/09/08 03:02:27;;;;;;;11.55;9.43;;;19.60;99.90;;;;;;4994035;28;20030;-76
2023/09/08 03:04:52;;;;;;;12.23;8.80;;;19.70;99.90;;;;;;4993984;28;20041;-76
2023/09/08 03:07:18;;;;;;;11.52;9.80;;;19.50;99.90;;;;;;4993743;28;20121;-76
2023/09/08 03:09:44;;;;;;;13.63;9.32;;;19.70;99.90;;;;;;4993921;28;20064;-76
2023/09/08 03:12:09;;;;;;;10.38;8.38;;;19.40;99.90;;;;;;4993940;28;20042;-76
2023/09/08 03:14:35;;;;;;;11.05;9.50;;;19.50;99.90;;;;;;4993985;28;20049;-76
2023/09/08 03:17:00;;;;;;;11.40;9.23;;;20.10;99.90;;;;;;4993715;28;20042;-76
2023/09/08 03:19:26;;;;;;;11.43;9.70;;;19.60;99.90;;;;;;4993861;28;20405;-76
2023/09/08 03:21:52;;;;;;;11.70;9.18;;;19.60;99.90;;;;;;4993960;28;20481;-76
2023/09/08 03:24:18;;;;;;;13.40;9.10;;;19.40;99.90;;;;;;4977701;28;20042;-76
2023/09/08 03:26:43;;;;;;;12.32;9.30;;;19.30;99.90;;;;;;4993911;28;20034;-76
2023/09/08 03:29:09;;;;;;;9.68;8.68;;;19.40;99.90;;;;;;4994096;28;20141;-76
2023/09/08 03:31:34;;;;;;;11.68;9.60;;;19.60;99.90;;;;;;4993767;28;20489;-76
2023/09/08 03:34:00;;;;;;;11.75;9.07;;;19.60;99.90;;;;;;4994097;28;20129;-76
2023/09/08 03:36:26;;;;;;;17.80;10.52;;;19.60;99.90;;;;;;4993501;28;20501;-76
2023/09/08 03:38:51;;;;;;;12.20;9.73;;;19.50;99.90;;;;;;4996551;28;20037;-76
2023/09/08 03:41:18;;;;;;;10.63;9.52;;;19.40;99.90;;;;;;4997525;28;20482;-76
2023/09/08 03:43:43;;;;;;;16.67;10.32;;;19.50;99.90;;;;;;4997523;28;20049;-76
2023/09/08 03:46:09;;;;;;;13.70;9.15;;;20.20;99.90;;;;;;4996991;28;20077;-76
2023/09/08 03:48:34;;;;;;;14.18;10.02;;;19.40;99.90;;;;;;4997223;28;20038;-76
2023/09/08 03:51:00;;;;;;;10.20;8.88;;;19.40;99.90;;;;;;4997094;28;20453;-76
2023/09/08 03:53:26;;;;;;;11.68;10.13;;;19.30;99.90;;;;;;4997028;28;20049;-77
2023/09/08 03:55:51;;;;;;;10.23;9.23;;;19.30;99.90;;;;;;4997055;28;20073;-76
2023/09/08 03:58:17;;;;;;;12.35;9.35;;;20.00;99.90;;;;;;4997010;28;20034;-76
2023/09/08 04:00:43;;;;;;;10.52;9.35;;;19.40;99.90;;;;;;4996784;28;20117;-76
2023/09/08 04:03:08;;;;;;;13.68;9.32;;;19.40;99.90;;;;;;4981164;28;20038;-76
2023/09/08 04:05:34;;;;;;;10.98;9.88;;;19.30;99.90;;;;;;4996882;28;20042;-76
2023/09/08 04:07:59;;;;;;;11.80;9.73;;;19.30;99.90;;;;;;4997067;28;20038;-76
2023/09/08 04:10:25;;;;;;;11.32;10.07;;;19.70;99.90;;;;;;4981042;28;20034;-76
2023/09/08 04:12:51;;;;;;;14.07;9.95;;;19.40;99.90;;;;;;4997036;28;20041;-76
2023/09/08 04:15:16;;;;;;;13.02;10.40;;;19.20;99.90;;;;;;4996748;28;20044;-77
2023/09/08 04:17:42;;;;;;;13.70;9.68;;;19.10;99.90;;;;;;4996630;28;20053;-76
2023/09/08 04:20:08;;;;;;;11.57;10.35;;;19.30;99.90;;;;;;4996635;28;20034;-77
2023/09/08 04:22:34;;;;;;;10.63;8.68;;;19.20;99.90;;;;;;4996441;28;20149;-76
2023/09/08 04:25:00;;;;;;;15.23;10.35;;;19.20;99.90;;;;;;4980349;28;20541;-76
2023/09/08 04:27:26;;;;;;;12.93;10.32;;;19.20;99.90;;;;;;4996169;28;20033;-76
2023/09/08 04:29:51;;;;;;;11.13;9.85;;;19.00;99.90;;;;;;4980235;28;20165;-76
2023/09/08 04:32:17;;;;;;;13.63;10.00;;;18.70;99.90;;;;;;4980253;28;20045;-76
2023/09/08 04:34:43;;;;;;;11.93;10.38;;;20.00;99.90;;;;;;4996379;28;20074;-76
2023/09/08 04:37:09;;;;;;;15.15;10.32;;;19.20;99.90;;;;;;4979670;28;20041;-76
2023/09/08 04:39:36;;;;;;;11.23;10.02;;;19.20;99.90;;;;;;4996184;28;20049;-76
2023/09/08 04:42:03;;;;;;;12.75;10.40;;;19.20;99.90;;;;;;4980066;28;20034;-76
2023/09/08 04:44:29;;;;;;;14.40;9.32;;;19.00;99.90;;;;;;4996311;28;20486;-77
2023/09/08 04:46:55;;;;;;;15.20;11.10;;;19.10;99.90;;;;;;4995854;28;20037;-76
2023/09/08 04:49:20;;;;;;;15.27;10.57;;;19.60;99.90;;;;;;4995130;28;20445;-76
2023/09/08 04:51:46;;;;;;;11.43;9.93;;;19.20;99.90;;;;;;4979649;28;20448;-76
2023/09/08 04:54:11;;;;;;;12.10;10.20;;;19.00;99.90;;;;;;4980123;28;20081;-76
2023/09/08 04:56:39;;;;;;;14.93;10.35;;;18.80;99.90;;;;;;4995737;28;20077;-76
2023/09/08 04:59:04;;;;;;;12.45;11.00;;;18.80;99.90;;;;;;4979706;28;20526;-76
2023/09/08 05:01:32;;;;;;;11.82;10.23;;;18.80;99.90;;;;;;4979636;28;20069;-76
2023/09/08 05:03:59;;;;;;;11.77;10.60;;;18.90;99.90;;;;;;4979700;28;20041;-76
2023/09/08 05:06:24;;;;;;;11.85;9.93;;;18.70;99.90;;;;;;4995554;28;20084;-76
2023/09/08 05:08:50;;;;;;;12.50;10.85;;;19.10;99.90;;;;;;4995677;28;20077;-76
2023/09/08 05:11:17;;;;;;;15.30;12.23;;;18.80;99.90;;;;;;4995491;28;20531;-76
2023/09/08 05:13:42;;;;;;;12.23;10.68;;;18.90;99.90;;;;;;4996007;28;20508;-76
2023/09/08 05:16:11;;;;;;;17.48;10.93;;;20.00;99.90;;;;;;4995437;28;20069;-77
2023/09/08 05:18:40;;;;;;;14.15;11.10;;;18.80;99.90;;;;;;4995588;28;20488;-77
2023/09/08 05:21:07;;;;;;;12.88;11.45;;;18.60;99.90;;;;;;4995346;28;20038;-76
2023/09/08 05:23:32;;;;;;;12.45;11.13;;;18.60;99.90;;;;;;4995484;28;20034;-76
2023/09/08 05:25:58;;;;;;;15.30;10.52;;;19.00;99.90;;;;;;4995479;28;20036;-76
2023/09/08 05:28:24;;;;;;;13.50;11.13;;;18.80;99.90;;;;;;4995346;28;20180;-76
2023/09/08 05:30:56;;;;;;;14.50;11.20;;;18.90;99.90;;;;;;4995518;28;20048;-76
2023/09/08 05:33:21;;;;;;;15.52;10.65;;;18.80;99.90;;;;;;4995230;28;20049;-76
2023/09/08 05:35:47;;;;;;;12.30;10.70;;;18.80;99.90;;;;;;4995393;28;20041;-76
2023/09/08 05:38:13;;;;;;;14.38;11.13;;;19.40;99.90;;;;;;4978685;28;20068;-76
2023/09/08 05:40:38;;;;;;;14.23;11.18;;;18.90;99.90;;;;;;4995112;28;20037;-77
2023/09/08 05:43:04;;;;;;;15.15;11.23;;;18.70;99.90;;;;;;4979163;28;20045;-76
2023/09/08 05:45:32;;;;;;;14.25;11.40;;;18.80;99.90;;;;;;4995120;28;20038;-76
2023/09/08 05:47:57;;;;;;;11.60;10.27;;;19.90;99.90;;;;;;4978484;28;20106;-76
2023/09/08 05:50:23;;;;;;;11.40;10.20;;;19.20;99.90;;;;;;4994787;28;20076;-76
2023/09/08 05:52:49;;;;;;;13.65;11.13;;;18.90;99.90;;;;;;4994918;28;20489;-76
2023/09/08 05:55:14;;;;;;;11.82;10.63;;;19.00;99.90;;;;;;4994877;28;20052;-76
2023/09/08 05:57:40;;;;;;;15.43;11.60;;;19.50;99.90;;;;;;4994417;28;20037;-76
2023/09/08 06:00:07;;;;;;;13.60;10.15;;;19.90;99.90;;;;;;4978253;28;20120;-76
2023/09/08 06:02:32;;;;;;;16.40;10.63;;;19.00;99.90;;;;;;4995057;28;20272;-76
2023/09/08 06:04:58;;;;;;;16.98;11.68;;;19.00;99.90;;;;;;4994876;28;20124;-76
2023/09/08 06:07:24;;;;;;;11.38;10.18;;;20.00;99.90;;;;;;4994719;28;20049;-76
2023/09/08 06:09:49;;;;;;;14.70;10.30;;;19.30;99.90;;;;;;4978460;28;20037;-76
2023/09/08 06:12:15;;;;;;;12.63;11.18;;;19.20;99.90;;;;;;4994583;28;20046;-76
2023/09/08 06:14:40;;;;;;;13.68;9.85;;;19.20;99.90;;;;;;4978348;28;20489;-76
2023/09/08 06:17:06;;;;;;;13.98;11.43;;;19.50;99.90;;;;;;4994173;28;20045;-76
2023/09/08 06:19:32;;;;;;;12.63;10.88;;;19.50;99.90;;;;;;4978202;28;20084;-76
2023/09/08 06:21:57;;;;;;;18.45;12.07;;;19.20;99.90;;;;;;4978247;28;20038;-76
2023/09/08 06:24:24;;;;;;;11.98;10.15;;;19.50;99.90;;;;;;4994697;28;20049;-77
2023/09/08 06:26:49;;;;;;;14.25;10.27;;;19.50;99.90;;;;;;4994240;28;20046;-76
2023/09/08 06:29:15;;;;;;;15.82;11.00;;;19.70;99.90;;;;;;4978432;28;20544;-76
2023/09/08 06:31:41;;;;;;;14.80;11.20;;;20.20;99.90;;;;;;4994398;28;20045;-76
2023/09/08 06:34:06;;;;;;;15.00;10.57;;;19.70;99.90;;;;;;4978226;28;20049;-76
2023/09/08 06:36:32;;;;;;;13.90;11.18;;;19.90;99.90;;;;;;4994079;28;20038;-76
2023/09/08 06:38:58;;;;;;;11.45;10.25;;;20.10;99.90;;;;;;4994203;28;20124;-76
2023/09/08 06:41:23;;;;;;;13.15;10.90;;;20.00;99.90;;;;;;4994204;28;20045;-76
2023/09/08 06:43:49;;;;;;;12.48;9.88;;;20.80;99.90;;;;;;4994272;28;20038;-76
2023/09/08 06:46:15;;;;;;;11.77;10.60;;;20.20;99.90;;;;;;4993831;28;20543;-76
2023/09/08 06:48:41;;;;;;;13.75;11.45;;;20.00;99.90;;;;;;4994349;28;20048;-77
2023/09/08 06:51:06;;;;;;;13.00;10.30;;;20.20;99.90;;;;;;4994221;28;20133;-76
2023/09/08 06:53:32;;;;;;;13.73;10.00;;;20.30;99.90;;;;;;4994271;28;20397;-76
2023/09/08 06:55:58;;;;;;;15.27;9.43;;;20.50;99.90;;;;;;4977603;28;20090;-76
2023/09/08 06:58:23;;;;;;;12.52;9.55;;;20.40;99.90;;;;;;4977995;28;20042;-77
2023/09/08 07:00:50;;;;;;;12.35;10.10;;;20.50;99.90;;;;;;4994314;28;20107;-76
2023/09/08 07:03:16;;;;;;;10.98;9.30;;;20.80;99.90;;;;;;4994064;28;20038;-77
2023/09/08 07:05:41;;;;;;;11.88;10.57;;;20.70;99.90;;;;;;4993934;28;20034;-76
2023/09/08 07:08:07;;;;;;;12.35;10.77;;;20.80;99.90;;;;;;4993977;28;20338;-77
2023/09/08 07:10:33;;;;;;;13.65;9.88;;;20.90;99.90;;;;;;4993940;28;20074;-76
2023/09/08 07:12:58;;;;;;;15.52;10.02;;;20.90;99.90;;;;;;4979497;28;20050;-77
2023/09/08 07:15:24;;;;;;;11.38;9.75;;;21.10;99.90;;;;;;4997704;28;20156;-75
2023/09/08 07:17:49;;;;;;;12.80;9.35;;;21.10;99.90;;;;;;4997720;28;20136;-76
2023/09/08 07:20:15;;;;;;;10.13;8.35;;;21.30;99.90;;;;;;4986056;28;20053;-76
2023/09/08 07:22:41;;;;;;;13.93;9.55;;;21.40;99.90;;;;;;4985550;28;20393;-76
2023/09/08 07:25:07;;;;;;;11.85;9.82;;;21.50;99.90;;;;;;4990671;28;20041;-75
2023/09/08 07:27:33;;;;;;;10.23;8.23;;;21.70;99.90;;;;;;4984269;28;20034;-76
2023/09/08 07:29:59;;;;;;;13.60;9.07;;;21.70;99.90;;;;;;4978201;28;20045;-76
2023/09/08 07:32:24;;;;;;;10.75;8.63;;;22.00;99.90;;;;;;4962140;28;20494;-76
2023/09/08 07:34:54;;;;;;;15.23;8.88;;;22.00;99.90;;;;;;4978073;28;20046;-75
2023/09/08 07:37:22;;;;;;;13.07;8.48;;;22.00;99.90;;;;;;4977693;28;20053;-75
2023/09/08 07:39:48;;;;;;;11.43;8.85;;;22.10;99.90;;;;;;4977713;28;20047;-75
2023/09/08 07:42:14;;;;;;;8.27;7.47;;;22.20;99.90;;;;;;4961749;28;20050;-75
2023/09/08 07:44:39;;;;;;;7.70;6.97;;;22.40;99.90;;;;;;4961740;28;20038;-75
2023/09/08 07:47:05;;;;;;;12.80;7.93;;;22.30;99.90;;;;;;4977350;28;20043;-76
2023/09/08 07:49:33;;;;;;;11.00;8.70;;;22.50;99.90;;;;;;4977710;28;20048;-75
2023/09/08 07:51:59;;;;;;;11.38;8.52;;;22.80;99.90;;;;;;4961568;28;20048;-75
2023/09/08 07:54:25;;;;;;;12.07;8.43;;;22.90;99.90;;;;;;4977839;28;20130;-75
2023/09/08 07:56:50;;;;;;;9.63;8.48;;;22.90;99.90;;;;;;4977314;28;20042;-76
2023/09/08 07:59:16;;;;;;;8.05;6.85;;;23.00;99.90;;;;;;4977021;28;20038;-76
2023/09/08 08:01:41;;;;;;;7.80;7.00;;;23.10;99.90;;;;;;4994694;28;20034;-75
2023/09/08 08:04:07;;;;;;;10.27;8.05;;;23.20;99.90;;;;;;4996795;28;20087;-75
2023/09/08 08:06:33;;;;;;;12.65;7.72;;;23.40;99.90;;;;;;4996581;28;20516;-76
2023/09/08 08:08:58;;;;;;;14.07;7.45;;;23.70;99.90;;;;;;4980641;28;20046;-75
2023/09/08 08:11:25;;;;;;;12.13;8.05;;;23.50;99.90;;;;;;4996778;28;20045;-76
2023/09/08 08:13:51;;;;;;;10.00;7.05;;;23.70;99.90;;;;;;4996891;28;20053;-76
2023/09/08 08:16:16;;;;;;;12.35;7.32;;;23.70;99.90;;;;;;4979572;28;20525;-76
2023/09/08 08:18:42;;;;;;;8.60;7.35;;;23.70;99.90;;;;;;4977217;28;20490;-76
2023/09/08 08:21:08;;;;;;;9.48;6.63;;;23.90;99.90;;;;;;4977391;28;20489;-75
2023/09/08 08:23:33;;;;;;;9.25;7.03;;;23.90;99.90;;;;;;4977103;28;20243;-75
2023/09/08 08:25:59;;;;;;;9.57;7.85;;;24.10;99.90;;;;;;4976806;28;20061;-76
2023/09/08 08:28:25;;;;;;;8.93;6.18;;;24.10;99.90;;;;;;4977020;28;20490;-75
2023/09/08 08:30:51;;;;;;;9.00;6.90;;;24.70;99.90;;;;;;4977124;28;20041;-75
2023/09/08 08:33:17;;;;;;;8.48;6.53;;;24.30;99.90;;;;;;4960864;28;20049;-76
2023/09/08 08:35:50;;;;;;;8.50;6.60;;;24.40;99.90;;;;;;4976892;28;20038;-76
2023/09/08 08:38:16;;;;;;;11.38;6.43;;;24.40;99.90;;;;;;4960476;28;20544;-76
2023/09/08 08:40:42;;;;;;;7.80;6.95;;;24.50;99.90;;;;;;4976881;28;20042;-76
2023/09/08 08:43:08;;;;;;;8.30;6.32;;;24.60;99.90;;;;;;4976706;28;20216;-76
2023/09/08 08:45:35;;;;;;;10.27;6.10;;;24.80;99.90;;;;;;4976690;28;20042;-76
2023/09/08 08:48:02;;;;;;;8.93;6.57;;;24.80;99.90;;;;;;4960498;28;20405;-76
2023/09/08 08:50:30;;;;;;;7.88;6.00;;;25.00;99.90;;;;;;4976833;28;20052;-76
2023/09/08 08:52:56;;;;;;;9.45;6.50;;;24.90;99.90;;;;;;4976742;28;20042;-76
2023/09/08 08:55:24;;;;;;;10.07;6.88;;;25.00;99.90;;;;;;4976476;28;20097;-75
2023/09/08 08:57:50;;;;;;;8.40;6.32;;;25.20;99.90;;;;;;4975852;28;20042;-76
2023/09/08 09:00:18;;;;;;;9.27;7.25;;;25.40;99.90;;;;;;4960039;28;20034;-76
2023/09/08 09:02:44;;;;;;;10.55;7.55;;;25.40;99.90;;;;;;4960181;28;20042;-76
2023/09/08 09:05:13;;;;;;;11.45;7.45;;;25.50;99.90;;;;;;4976203;28;20034;-76
2023/09/08 09:07:41;;;;;;;15.10;9.65;;;25.40;99.90;;;;;;4975680;28;20040;-76
2023/09/08 09:10:08;;;;;;;11.95;8.43;;;25.50;99.90;;;;;;4976064;28;20496;-76
2023/09/08 09:12:39;;;;;;;12.35;9.68;;;25.60;99.90;;;;;;4976105;28;20649;-76
2023/09/08 09:15:05;;;;;;;12.20;9.13;;;25.70;99.90;;;;;;4960927;28;20038;-75
2023/09/08 09:17:35;;;;;;;12.90;8.10;;;25.80;99.90;;;;;;4982267;28;20046;-76
2023/09/08 09:20:20;;;;;;;12.00;6.80;;;26.00;99.90;;;;;;4994957;28;20124;-76
2023/09/08 09:22:46;;;;;;;8.88;6.85;;;25.80;99.90;;;;;;4994898;28;20057;-76
2023/09/08 09:25:23;;;;;;;11.15;7.10;;;26.00;99.90;;;;;;4979108;28;20058;-76
2023/09/08 09:27:53;;;;;;;11.32;7.43;;;25.90;99.90;;;;;;4978505;28;20069;-76
2023/09/08 09:30:19;;;;;;;10.82;7.20;;;26.20;99.90;;;;;;4979010;28;20096;-76
2023/09/08 09:32:44;;;;;;;10.10;6.95;;;26.10;99.90;;;;;;4979293;28;20029;-76
2023/09/08 09:35:10;;;;;;;10.32;7.82;;;26.60;99.90;;;;;;4994570;28;20072;-76
2023/09/08 09:37:36;;;;;;;10.10;6.40;;;26.40;99.90;;;;;;4994618;28;20076;-76
2023/09/08 09:40:05;;;;;;;9.15;6.10;;;26.50;99.90;;;;;;4978598;28;20129;-75
2023/09/08 09:42:31;;;;;;;7.65;5.78;;;26.50;99.90;;;;;;4995173;28;20562;-76
2023/09/08 09:44:57;;;;;;;11.68;6.47;;;26.40;99.90;;;;;;4978710;28;20034;-76
2023/09/08 09:47:23;;;;;;;8.13;6.45;;;26.60;99.90;;;;;;4994552;28;20116;-75
2023/09/08 09:49:49;;;;;;;8.02;5.70;;;26.50;99.90;;;;;;4994780;28;20160;-76
2023/09/08 09:52:20;;;;;;;7.70;5.70;;;26.80;99.90;;;;;;4994795;28;20068;-76
2023/09/08 09:54:47;;;;;;;8.23;7.05;;;26.80;99.90;;;;;;4994788;28;20042;-76
2023/09/08 09:57:14;;;;;;;8.85;5.65;;;26.80;99.90;;;;;;4978206;28;20048;-76
2023/09/08 09:59:43;;;;;;;7.45;5.85;;;26.70;99.90;;;;;;4994486;28;20125;-76
2023/09/08 10:02:13;;;;;;;8.05;5.80;;;27.00;99.90;;;;;;4978453;28;20405;-76
2023/09/08 10:04:41;;;;;;;7.78;5.47;;;27.00;99.90;;;;;;4979531;28;20041;-77
2023/09/08 10:07:07;;;;;;;8.98;5.47;;;27.10;99.90;;;;;;4994253;28;20080;-75
2023/09/08 10:09:33;;;;;;;5.97;4.88;;;27.20;99.90;;;;;;4994869;28;20053;-76
2023/09/08 10:12:04;;;;;;;8.35;5.47;;;27.10;99.90;;;;;;4978710;28;20042;-76
2023/09/08 10:14:31;;;;;;;9.88;6.03;;;27.50;99.90;;;;;;4992027;28;20052;-75
2023/09/08 10:17:00;;;;;;;11.38;5.60;;;27.50;99.90;;;;;;4974608;28;20049;-75
2023/09/08 10:19:26;;;;;;;8.38;5.07;;;27.70;99.90;;;;;;4983507;28;20542;-76
2023/09/08 10:22:00;;;;;;;11.00;5.32;;;27.80;99.90;;;;;;4993820;28;20076;-76
2023/09/08 10:24:27;;;;;;;5.78;5.15;;;27.90;99.90;;;;;;4993947;28;20042;-76
2023/09/08 10:27:04;;;;;;;8.95;5.25;;;27.90;99.90;;;;;;4993977;28;20143;-76
2023/09/08 10:29:31;;;;;;;6.35;5.05;;;27.70;99.90;;;;;;4994269;28;20056;-76
2023/09/08 10:31:57;;;;;;;6.72;4.55;;;28.10;99.90;;;;;;4994285;28;20038;-77
2023/09/08 10:34:25;;;;;;;7.05;4.72;;;28.10;99.90;;;;;;4994408;28;20443;-77
2023/09/08 10:36:51;;;;;;;7.40;5.50;;;28.10;99.90;;;;;;4984002;28;20532;-76
2023/09/08 10:39:37;;;;;;;6.63;5.00;;;28.20;99.90;;;;;;4992645;28;20046;-77
2023/09/08 10:42:19;;;;;;;7.65;4.50;;;28.30;99.90;;;;;;5010777;28;20069;-77
2023/09/08 10:44:51;;;;;;;6.13;4.88;;;28.50;99.90;;;;;;5002542;28;20124;-77
2023/09/08 10:47:24;;;;;;;5.30;4.63;;;28.60;99.90;;;;;;4996773;28;20105;-76
2023/09/08 10:49:57;;;;;;;7.40;4.35;;;28.30;99.90;;;;;;4991113;28;20049;-77
2023/09/08 10:52:24;;;;;;;5.70;4.70;;;28.50;99.90;;;;;;4966503;28;20505;-77
2023/09/08 10:54:52;;;;;;;7.25;4.75;;;28.50;99.90;;;;;;4979820;28;20070;-77
2023/09/08 10:57:22;;;;;;;5.38;4.70;;;28.90;99.90;;;;;;4975144;28;20484;-77
2023/09/08 10:59:56;;;;;;;6.03;4.97;;;28.80;99.90;;;;;;4988019;28;20125;-77
2023/09/08 11:02:47;;;;;;;10.80;4.50;;;29.10;99.90;;;;;;4976697;28;20030;-77
2023/09/08 11:05:15;;;;;;;6.28;5.18;;;29.00;99.90;;;;;;4983246;28;20495;-76
2023/09/08 11:07:42;;;;;;;6.32;5.00;;;28.90;99.90;;;;;;4975785;28;20069;-77
2023/09/08 11:10:09;;;;;;;7.68;5.15;;;29.30;99.90;;;;;;4963462;28;20042;-76
2023/09/08 11:12:35;;;;;;;6.13;5.05;;;29.60;99.90;;;;;;4961809;28;20097;-76
2023/09/08 11:15:07;;;;;;;9.48;5.70;;;28.90;99.90;;;;;;4979820;28;20034;-77
2023/09/08 11:17:34;;;;;;;9.07;4.75;;;29.00;99.90;;;;;;4964252;28;20485;-76
2023/09/08 11:20:05;;;;;;;6.88;4.38;;;29.30;99.90;;;;;;4976341;28;20042;-76
2023/09/08 11:22:31;;;;;;;4.90;4.50;;;29.20;99.90;;;;;;4964569;28;20038;-76
2023/09/08 11:24:57;;;;;;;5.07;4.57;;;29.40;99.90;;;;;;4969641;28;20076;-77
2023/09/08 11:27:23;;;;;;;5.57;4.97;;;29.30;99.90;;;;;;4990502;28;20038;-76
2023/09/08 11:29:50;;;;;;;7.25;4.97;;;29.30;99.90;;;;;;4983890;28;20046;-77
2023/09/08 11:32:16;;;;;;;6.45;4.68;;;29.50;99.90;;;;;;4982697;28;20050;-76
2023/09/08 11:34:42;;;;;;;6.47;4.30;;;29.50;99.90;;;;;;4972648;28;20040;-76
2023/09/08 11:37:18;;;;;;;5.38;4.75;;;29.60;99.90;;;;;;4989153;28;20042;-76
2023/09/08 11:39:45;;;;;;;6.88;4.72;;;29.70;99.90;;;;;;4974595;28;20038;-77
2023/09/08 11:42:13;;;;;;;6.40;4.47;;;29.90;99.90;;;;;;4969601;28;20113;-77
2023/09/08 11:44:39;;;;;;;5.93;5.15;;;29.50;99.90;;;;;;4972413;28;20030;-77
2023/09/08 11:47:09;;;;;;;9.57;4.70;;;29.60;99.90;;;;;;4969932;28;20130;-77
2023/09/08 11:49:40;;;;;;;6.07;4.70;;;29.70;99.90;;;;;;4970582;28;20522;-76
2023/09/08 11:52:06;;;;;;;9.27;4.80;;;29.70;99.90;;;;;;4970857;28;20030;-78
2023/09/08 11:54:33;;;;;;;10.32;4.82;;;29.80;99.90;;;;;;4982510;28;20046;-76
2023/09/08 11:57:01;;;;;;;8.32;4.90;;;29.90;99.90;;;;;;4980471;28;20042;-76
2023/09/08 11:59:28;;;;;;;6.35;5.10;;;30.00;99.90;;;;;;4980394;28;20124;-76
2023/09/08 12:01:55;;;;;;;5.82;4.38;;;29.90;99.90;;;;;;4996777;28;20037;-76
2023/09/08 12:04:21;;;;;;;4.35;3.95;;;30.00;99.90;;;;;;4997190;28;20092;-76
2023/09/08 12:06:51;;;;;;;6.72;4.78;;;30.00;99.90;;;;;;4980425;28;20583;-76
2023/09/08 12:09:17;;;;;;;6.65;4.22;;;30.20;99.90;;;;;;4996869;28;20065;-76
2023/09/08 12:11:43;;;;;;;8.35;4.75;;;30.00;99.90;;;;;;4996679;28;20497;-76
2023/09/08 12:14:11;;;;;;;5.70;4.80;;;30.00;99.90;;;;;;4997076;28;20096;-76
2023/09/08 12:16:37;;;;;;;7.18;4.47;;;30.20;99.90;;;;;;4980223;28;20076;-76
2023/09/08 12:19:02;;;;;;;4.30;3.88;;;30.20;99.90;;;;;;4980516;28;20041;-76
2023/09/08 12:21:28;;;;;;;6.43;4.35;;;30.40;99.90;;;;;;4996999;28;20044;-76
2023/09/08 12:23:54;;;;;;;4.85;4.00;;;30.30;99.90;;;;;;4996554;28;20493;-76
2023/09/08 12:26:20;;;;;;;7.35;4.38;;;30.40;99.90;;;;;;4996338;28;20042;-76
2023/09/08 12:28:47;;;;;;;5.95;4.80;;;30.60;99.90;;;;;;4996660;28;20042;-76
2023/09/08 12:31:13;;;;;;;7.93;4.30;;;30.50;99.90;;;;;;4980306;28;20045;-76
2023/09/08 12:33:39;;;;;;;5.25;4.75;;;30.60;99.90;;;;;;4996720;28;20045;-76
2023/09/08 12:36:17;;;;;;;10.13;4.40;;;30.70;99.90;;;;;;4996190;28;20037;-76